createdAt,value
2018-06-30T00:01:32.741Z,15.78
2018-06-30T00:04:01.635Z,16.40
2018-06-30T00:06:30.745Z,16.00
2018-06-30T00:08:59.661Z,15.48
2018-06-30T00:11:29.412Z,15.55
2018-06-30T00:13:59.351Z,16.07
2018-06-30T00:16:32.938Z,16.45
2018-06-30T00:19:01.969Z,15.75
2018-06-30T00:21:31.409Z,15.80
2018-06-30T00:24:00.286Z,15.25
2018-06-30T00:26:29.137Z,16.05
2018-06-30T00:28:57.985Z,15.65
2018-06-30T00:31:27.793Z,15.72
2018-06-30T00:33:57.675Z,14.50
2018-06-30T00:36:26.563Z,14.73
2018-06-30T00:38:55.435Z,15.28
2018-06-30T00:41:24.207Z,14.98
2018-06-30T00:43:53.345Z,15.08
2018-06-30T00:46:23.275Z,14.63
2018-06-30T00:48:52.739Z,13.85
2018-06-30T00:51:21.619Z,14.85
2018-06-30T00:53:50.504Z,14.55
2018-06-30T00:56:19.383Z,15.15
2018-06-30T00:58:49.173Z,14.63
2018-06-30T01:01:18.699Z,15.47
2018-06-30T01:03:47.695Z,14.60
2018-06-30T01:06:16.631Z,15.23
2018-06-30T01:08:46.163Z,15.53
2018-06-30T01:11:15.792Z,14.77
2018-06-30T01:13:48.683Z,14.68
2018-06-30T01:16:17.613Z,16.57
2018-06-30T01:18:48.579Z,15.13
2018-06-30T01:21:18.113Z,15.20
2018-06-30T01:23:47.354Z,14.97
2018-06-30T01:26:16.209Z,15.00
2018-06-30T01:28:46.166Z,13.93
2018-06-30T01:31:15.323Z,14.28
2018-06-30T01:33:44.243Z,14.70
2018-06-30T01:36:13.355Z,15.83
2018-06-30T01:38:46.151Z,14.90
2018-06-30T01:41:15.087Z,14.77
2018-06-30T01:43:44.575Z,13.88
2018-06-30T01:46:13.497Z,14.63
2018-06-30T01:48:47.064Z,15.07
2018-06-30T01:51:16.383Z,15.80
2018-06-30T01:53:46.019Z,15.20
2018-06-30T01:56:15.188Z,14.90
2018-06-30T01:58:44.959Z,16.73
2018-06-30T02:01:18.176Z,16.00
2018-06-30T02:03:47.188Z,16.43
2018-06-30T02:06:16.017Z,16.93
2018-06-30T02:25:17.674Z,15.90
2018-06-30T02:27:47.893Z,16.20
2018-06-30T02:30:17.443Z,15.57
2018-06-30T02:32:46.233Z,15.07
2018-06-30T02:35:15.735Z,14.77
2018-06-30T02:37:44.557Z,16.47
2018-06-30T02:40:18.075Z,15.40
2018-06-30T02:42:46.959Z,16.07
2018-06-30T02:45:16.009Z,16.93
2018-06-30T02:47:44.823Z,15.60
2018-06-30T02:50:13.647Z,15.55
2018-06-30T02:52:42.535Z,15.83
2018-06-30T02:55:11.511Z,15.47
2018-06-30T02:57:40.444Z,17.10
2018-06-30T03:00:08.965Z,15.93
2018-06-30T03:02:37.773Z,16.03
2018-06-30T03:05:06.722Z,15.80
2018-06-30T03:07:36.857Z,14.93
2018-06-30T03:10:10.049Z,15.27
2018-06-30T03:12:38.498Z,15.77
2018-06-30T03:15:09.191Z,15.33
2018-06-30T03:17:41.835Z,16.63
2018-06-30T03:20:10.685Z,15.70
2018-06-30T03:22:40.469Z,16.27
2018-06-30T03:25:09.345Z,15.17
2018-06-30T03:27:38.203Z,15.00
2018-06-30T03:30:07.113Z,15.87
2018-06-30T03:32:41.013Z,16.10
2018-06-30T03:35:11.011Z,15.50
2018-06-30T03:37:39.473Z,16.40
2018-06-30T03:40:08.267Z,15.93
2018-06-30T03:42:37.481Z,14.80
2018-06-30T03:45:06.376Z,16.10
2018-06-30T03:47:35.677Z,16.63
2018-06-30T03:50:09.835Z,15.83
2018-06-30T03:52:38.639Z,15.67
2018-06-30T03:55:07.439Z,16.80
2018-06-30T03:57:37.668Z,17.00
2018-06-30T04:00:07.447Z,16.23
2018-06-30T04:02:36.473Z,16.60
2018-06-30T04:05:05.313Z,16.67
2018-06-30T04:07:35.549Z,16.13
2018-06-30T04:10:04.597Z,16.87
2018-06-30T04:12:33.532Z,16.90
2018-06-30T04:15:02.372Z,16.63
2018-06-30T04:17:31.131Z,16.37
2018-06-30T04:20:00.663Z,16.63
2018-06-30T04:22:29.871Z,16.17
2018-06-30T04:24:58.845Z,16.87
2018-06-30T04:27:28.197Z,16.20
2018-06-30T04:29:57.108Z,17.83
2018-06-30T04:32:26.176Z,17.07
2018-06-30T04:34:55.027Z,17.07
2018-06-30T04:37:24.249Z,16.33
2018-06-30T04:39:53.053Z,16.42
2018-06-30T04:42:21.949Z,17.15
2018-06-30T04:44:50.864Z,17.23
2018-06-30T04:47:19.721Z,16.90
2018-06-30T04:49:48.845Z,15.67
2018-06-30T04:52:17.472Z,17.67
2018-06-30T04:54:46.635Z,17.62
2018-06-30T04:57:15.721Z,17.82
2018-06-30T04:59:44.652Z,17.07
2018-06-30T05:02:13.853Z,17.77
2018-06-30T05:04:45.027Z,17.23
2018-06-30T05:07:14.325Z,20.12
2018-06-30T05:09:43.557Z,18.50
2018-06-30T05:12:12.539Z,17.50
2018-06-30T05:14:43.285Z,55.30
2018-06-30T05:17:12.204Z,20.45
2018-06-30T05:19:41.331Z,18.02
2018-06-30T05:22:10.389Z,18.27
2018-06-30T05:24:39.423Z,18.70
2018-06-30T05:27:09.063Z,17.45
2018-06-30T05:29:39.079Z,16.97
2018-06-30T05:32:08.753Z,16.95
2018-06-30T05:34:37.660Z,17.00
2018-06-30T05:37:06.875Z,17.20
2018-06-30T05:39:36.881Z,16.73
2018-06-30T05:42:05.925Z,16.25
2018-06-30T05:44:35.165Z,17.07
2018-06-30T05:47:04.401Z,17.00
2018-06-30T05:49:33.355Z,16.65
2018-06-30T05:52:02.231Z,16.60
2018-06-30T05:54:35.549Z,17.35
2018-06-30T05:57:14.153Z,17.27
2018-06-30T05:59:49.914Z,17.10
2018-06-30T06:02:19.313Z,17.70
2018-06-30T06:04:49.530Z,16.85
2018-06-30T06:07:31.221Z,17.90
2018-06-30T06:10:01.731Z,17.82
2018-06-30T06:12:31.558Z,16.27
2018-06-30T06:15:01.257Z,16.25
2018-06-30T06:46:09.163Z,15.80
2018-06-30T06:55:36.109Z,17.67
2018-06-30T06:58:08.568Z,15.25
2018-06-30T07:00:39.865Z,14.58
2018-06-30T07:03:10.653Z,15.55
2018-06-30T07:05:41.272Z,13.78
2018-06-30T07:08:12.000Z,14.33
2018-06-30T07:10:43.815Z,13.32
2018-06-30T07:13:14.379Z,13.25
2018-06-30T07:15:46.659Z,13.13
2018-06-30T07:18:18.995Z,11.97
2018-06-30T07:20:49.580Z,13.72
2018-06-30T07:23:21.527Z,13.40
2018-06-30T07:25:56.470Z,14.18
2018-06-30T07:28:43.024Z,13.08
2018-06-30T07:31:14.896Z,13.00
2018-06-30T08:24:15.858Z,14.87
2018-06-30T08:27:07.076Z,13.00
2018-06-30T08:29:43.176Z,14.55
2018-06-30T08:32:19.232Z,13.32
2018-06-30T08:35:06.938Z,11.53
2018-06-30T08:37:54.033Z,12.07
2018-06-30T08:40:27.764Z,11.20
2018-06-30T08:43:18.572Z,12.50
2018-06-30T08:46:39.427Z,12.20
2018-06-30T08:49:39.449Z,13.22
2018-06-30T08:52:37.832Z,12.68
2018-06-30T08:55:12.707Z,13.18
2018-06-30T09:20:02.194Z,11.65
2018-06-30T09:43:16.498Z,8.40
2018-06-30T09:47:47.426Z,7.92
2018-06-30T10:04:05.755Z,6.97
2018-06-30T10:06:55.249Z,7.42
2018-06-30T10:09:33.939Z,6.45
2018-06-30T10:15:25.695Z,6.67
2018-06-30T10:18:21.213Z,6.53
2018-06-30T10:26:28.537Z,6.92
2018-06-30T10:29:06.844Z,6.85
2018-06-30T10:31:59.781Z,7.22
2018-06-30T10:41:45.317Z,8.80
2018-06-30T10:44:18.579Z,9.00
2018-06-30T10:46:50.571Z,8.78
2018-06-30T10:49:21.781Z,9.38
2018-06-30T10:51:53.933Z,8.98
2018-06-30T10:54:39.311Z,9.50
2018-06-30T10:57:09.484Z,8.95
2018-06-30T10:59:41.768Z,8.03
2018-06-30T11:02:14.602Z,8.15
2018-06-30T11:04:45.884Z,8.00
2018-06-30T11:07:16.156Z,8.48
2018-06-30T11:09:47.410Z,7.92
2018-06-30T12:33:42.104Z,6.17
2018-06-30T12:36:21.121Z,6.83
2018-06-30T12:38:50.450Z,6.12
2018-06-30T12:41:19.377Z,6.40
2018-06-30T12:43:49.282Z,6.37
2018-06-30T12:46:18.528Z,6.65
2018-06-30T12:48:47.797Z,5.42
2018-06-30T12:51:17.863Z,6.20
2018-06-30T12:53:47.126Z,5.87
2018-06-30T12:56:16.124Z,5.78
2018-06-30T12:58:46.400Z,5.47
2018-06-30T13:01:15.416Z,5.80
2018-06-30T13:03:44.911Z,6.47
2018-06-30T13:06:14.154Z,5.20
2018-06-30T13:08:43.030Z,5.75
2018-06-30T13:11:12.606Z,5.53
2018-06-30T13:13:42.204Z,5.05
2018-06-30T13:16:12.147Z,5.40
2018-06-30T13:18:41.280Z,5.35
2018-06-30T13:21:10.371Z,5.65
2018-06-30T13:23:39.690Z,5.42
2018-06-30T13:26:08.810Z,5.47
2018-06-30T13:28:37.807Z,5.55
2018-06-30T13:31:07.547Z,5.40
2018-06-30T13:33:36.535Z,5.83
2018-06-30T13:36:05.908Z,5.10
2018-06-30T13:38:35.135Z,5.58
2018-06-30T13:41:04.256Z,5.03
2018-06-30T13:43:33.710Z,4.97
2018-06-30T13:46:02.904Z,4.58
2018-06-30T13:48:31.817Z,4.72
2018-06-30T13:51:00.812Z,4.95
2018-06-30T13:53:29.736Z,5.12
2018-06-30T13:55:59.386Z,5.17
